Time;durP1;ratioP1;P1;durP2;ratioP2;P2;SDS_P1;SDS_P2;PMS_P1;PMS_P2;Temp;Humidity;BMP_temperature;BMP_pressure;BME280_temperature;BME280_humidity;BME280_pressure;Samples;Min_cycle;Max_cycle;Signal;HPM_P1;HPM_P2
2022/11/28 00:01:18;;;;;;;;;;;;;;;;;;4992500;28;2076;-46
2022/11/28 00:03:46;;;;;;;;;;;;;;;;;;4992332;28;1908;-44
2022/11/28 00:06:13;;;;;;;;;;;;;;;;;;4992200;28;1801;-44
2022/11/28 00:08:40;;;;;;;;;;;;;;;;;;5011863;28;2005;-44
2022/11/28 00:11:08;;;;;;;;;;;;;;;;;;5027053;28;1992;-48
2022/11/28 00:13:36;;;;;;;;;;;;;;;;;;5011795;28;1823;-48
2022/11/28 00:16:05;;;;;;;;;;;;;;;;;;5012089;28;1906;-48
2022/11/28 00:18:32;;;;;;;;;;;;;;;;;;5002745;28;2026;-48
2022/11/28 00:21:00;;;;;;;;;;;;;;;;;;4992318;28;2144;-47
2022/11/28 00:23:27;;;;;;;;;;;;;;;;;;4992105;28;1926;-47
2022/11/28 00:25:58;;;;;;;;;;;;;;;;;;4992251;28;2086;-44
2022/11/28 00:28:25;;;;;;;;;;;;;;;;;;4992228;28;2053;-45
2022/11/28 00:30:52;;;;;;;;;;;;;;;;;;5007202;28;1944;-47
2022/11/28 00:33:20;;;;;;;;;;;;;;;;;;4991927;28;2074;-46
2022/11/28 00:35:47;;;;;;;;;;;;;;;;;;5007157;28;1969;-51
2022/11/28 00:38:14;;;;;;;;;;;;;;;;;;5006964;28;1973;-51
2022/11/28 00:40:41;;;;;;;;;;;;;;;;;;4991987;28;2056;-49
2022/11/28 00:43:10;;;;;;;;;;;;;;;;;;4991974;28;1877;-46
2022/11/28 00:45:39;;;;;;;;;;;;;;;;;;4991678;28;2125;-47
2022/11/28 00:48:07;;;;;;;;;;;;;;;;;;4991811;28;2104;-49
2022/11/28 00:50:34;;;;;;;;;;;;;;;;;;4992042;28;2102;-47
2022/11/28 00:53:01;;;;;;;;;;;;;;;;;;4992115;28;2096;-47
2022/11/28 00:55:28;;;;;;;;;;;;;;;;;;4991804;28;2050;-50
2022/11/28 00:57:55;;;;;;;;;;;;;;;;;;4991805;28;1903;-44
2022/11/28 01:00:23;;;;;;;;;;;;;;;;;;4991660;28;1912;-49
2022/11/28 01:02:51;;;;;;;;;;;;;;;;;;4994863;28;2160;-45
2022/11/28 01:05:18;;;;;;;;;;;;;;;;;;4995824;28;1938;-45
2022/11/28 01:07:45;;;;;;;;;;;;;;;;;;4995605;28;1916;-47
2022/11/28 01:10:12;;;;;;;;;;;;;;;;;;4995798;28;1926;-46
2022/11/28 01:12:39;;;;;;;;;;;;;;;;;;4995495;28;1920;-45
2022/11/28 01:15:08;;;;;;;;;;;;;;;;;;5010712;28;2053;-46
2022/11/28 01:17:35;;;;;;;;;;;;;;;;;;4997251;28;2037;-47
2022/11/28 01:20:06;;;;;;;;;;;;;;;;;;5015265;28;2186;-47
2022/11/28 01:22:33;;;;;;;;;;;;;;;;;;5015168;28;1905;-46
2022/11/28 01:25:01;;;;;;;;;;;;;;;;;;5014886;28;2162;-42
2022/11/28 01:27:28;;;;;;;;;;;;;;;;;;5014708;28;2246;-48
2022/11/28 01:29:55;;;;;;;;;;;;;;;;;;5030266;28;1879;-47
2022/11/28 01:32:22;;;;;;;;;;;;;;;;;;5014741;28;2066;-49
2022/11/28 01:34:49;;;;;;;;;;;;;;;;;;5014854;28;2036;-49
2022/11/28 01:37:17;;;;;;;;;;;;;;;;;;5014629;28;1907;-49
2022/11/28 01:39:44;;;;;;;;;;;;;;;;;;5014544;28;1937;-48
2022/11/28 01:42:18;;;;;;;;;;;;;;;;;;5014577;28;2040;-47
2022/11/28 01:44:49;;;;;;;;;;;;;;;;;;5014695;28;1954;-43
2022/11/28 01:47:18;;;;;;;;;;;;;;;;;;5014472;28;2065;-44
2022/11/28 01:49:46;;;;;;;;;;;;;;;;;;5014605;28;2020;-47
2022/11/28 01:52:16;;;;;;;;;;;;;;;;;;5014054;28;2111;-46
2022/11/28 01:54:45;;;;;;;;;;;;;;;;;;5029635;28;2095;-45
2022/11/28 01:57:17;;;;;;;;;;;;;;;;;;5014181;28;2123;-48
2022/11/28 02:00:04;;;;;;;;;;;;;;;;;;5014353;28;2093;-49
2022/11/28 02:02:44;;;;;;;;;;;;;;;;;;5014343;28;1971;-49
2022/11/28 02:05:12;;;;;;;;;;;;;;;;;;5014162;28;1878;-46
2022/11/28 02:07:40;;;;;;;;;;;;;;;;;;4998740;28;2109;-48
2022/11/28 02:10:09;;;;;;;;;;;;;;;;;;4994827;28;2020;-47
2022/11/28 02:12:49;;;;;;;;;;;;;;;;;;4994682;28;2034;-45
2022/11/28 02:15:19;;;;;;;;;;;;;;;;;;4994512;28;1845;-47
2022/11/28 02:17:58;;;;;;;;;;;;;;;;;;4997201;28;1930;-45
2022/11/28 02:20:48;;;;;;;;;;;;;;;;;;5014013;28;1925;-47
2022/11/28 02:23:24;;;;;;;;;;;;;;;;;;5003785;28;1929;-47
2022/11/28 02:26:14;;;;;;;;;;;;;;;;;;5013821;28;1953;-46
2022/11/28 02:28:52;;;;;;;;;;;;;;;;;;5004109;28;1360;-45
2022/11/28 02:31:25;;;;;;;;;;;;;;;;;;5013599;28;1967;-45
2022/11/28 02:34:02;;;;;;;;;;;;;;;;;;5013564;28;2100;-46
2022/11/28 02:36:32;;;;;;;;;;;;;;;;;;5013579;28;1957;-46
2022/11/28 02:39:22;;;;;;;;;;;;;;;;;;5013551;28;2093;-48
2022/11/28 02:41:59;;;;;;;;;;;;;;;;;;5013642;28;2060;-46
2022/11/28 02:44:43;;;;;;;;;;;;;;;;;;5013295;28;2083;-46
2022/11/28 02:47:17;;;;;;;;;;;;;;;;;;5013586;28;2025;-47
2022/11/28 02:50:06;;;;;;;;;;;;;;;;;;5013333;28;1999;-47
2022/11/28 02:52:35;;;;;;;;;;;;;;;;;;5028370;28;1802;-50
2022/11/28 02:55:03;;;;;;;;;;;;;;;;;;5013214;28;2110;-47
2022/11/28 02:57:37;;;;;;;;;;;;;;;;;;5013245;28;1994;-46
2022/11/28 03:00:24;;;;;;;;;;;;;;;;;;5013108;28;2090;-47
2022/11/28 03:03:10;;;;;;;;;;;;;;;;;;5009640;28;1976;-45
2022/11/28 03:05:57;;;;;;;;;;;;;;;;;;5013121;28;2190;-46
2022/11/28 03:08:34;;;;;;;;;;;;;;;;;;5009232;28;1986;-46
2022/11/28 03:11:04;;;;;;;;;;;;;;;;;;5012864;28;1872;-46
2022/11/28 03:13:46;;;;;;;;;;;;;;;;;;5013034;28;2026;-47
2022/11/28 03:16:29;;;;;;;;;;;;;;;;;;5013090;28;2111;-45
2022/11/28 03:19:00;;;;;;;;;;;;;;;;;;5000128;28;2037;-46
2022/11/28 03:21:28;;;;;;;;;;;;;;;;;;4993135;28;2060;-49
2022/11/28 03:23:58;;;;;;;;;;;;;;;;;;4992314;28;2044;-46
2022/11/28 03:26:31;;;;;;;;;;;;;;;;;;4993029;28;1836;-47
2022/11/28 03:29:17;;;;;;;;;;;;;;;;;;4993305;28;2119;-45
2022/11/28 03:31:47;;;;;;;;;;;;;;;;;;4993112;28;2032;-47
2022/11/28 03:34:16;;;;;;;;;;;;;;;;;;4993273;28;1905;-44
2022/11/28 03:36:46;;;;;;;;;;;;;;;;;;4993216;28;1740;-48
2022/11/28 03:39:14;;;;;;;;;;;;;;;;;;4993008;28;2153;-47
2022/11/28 03:41:48;;;;;;;;;;;;;;;;;;4993262;28;2008;-47
2022/11/28 03:44:17;;;;;;;;;;;;;;;;;;4993073;28;2003;-47
2022/11/28 03:46:46;;;;;;;;;;;;;;;;;;4992917;28;1999;-46
2022/11/28 03:49:22;;;;;;;;;;;;;;;;;;4992609;28;2130;-49
2022/11/28 03:51:54;;;;;;;;;;;;;;;;;;5007212;28;2041;-47
2022/11/28 03:54:26;;;;;;;;;;;;;;;;;;4992695;28;1977;-45
2022/11/28 03:57:14;;;;;;;;;;;;;;;;;;4992597;28;1873;-45
2022/11/28 03:59:43;;;;;;;;;;;;;;;;;;4992415;28;2001;-47
2022/11/28 04:02:28;;;;;;;;;;;;;;;;;;4992650;28;1945;-45
2022/11/28 04:05:17;;;;;;;;;;;;;;;;;;4992491;28;1858;-48
2022/11/28 04:07:47;;;;;;;;;;;;;;;;;;4992372;28;1992;-44
2022/11/28 04:10:35;;;;;;;;;;;;;;;;;;4992601;28;2228;-44
2022/11/28 04:13:02;;;;;;;;;;;;;;;;;;4992175;28;1842;-44
2022/11/28 04:15:37;;;;;;;;;;;;;;;;;;4992510;28;2135;-47
2022/11/28 04:18:20;;;;;;;;;;;;;;;;;;4997546;28;2079;-47
2022/11/28 04:21:13;;;;;;;;;;;;;;;;;;5011946;28;1960;-48
2022/11/28 04:23:42;;;;;;;;;;;;;;;;;;5003349;28;2052;-47
2022/11/28 04:26:12;;;;;;;;;;;;;;;;;;5001960;28;2078;-45
2022/11/28 04:28:40;;;;;;;;;;;;;;;;;;4992043;28;1894;-49
2022/11/28 04:31:08;;;;;;;;;;;;;;;;;;4992104;28;1915;-48
2022/11/28 04:33:38;;;;;;;;;;;;;;;;;;4991950;28;2029;-45
2022/11/28 04:36:07;;;;;;;;;;;;;;;;;;4991199;28;1967;-48
2022/11/28 04:38:35;;;;;;;;;;;;;;;;;;4991992;28;2081;-45
2022/11/28 04:41:09;;;;;;;;;;;;;;;;;;4991771;28;1832;-45
2022/11/28 04:43:42;;;;;;;;;;;;;;;;;;4992044;28;1987;-46
2022/11/28 04:46:17;;;;;;;;;;;;;;;;;;4992011;28;2222;-46
2022/11/28 04:48:45;;;;;;;;;;;;;;;;;;4991953;28;1992;-44
2022/11/28 04:51:11;;;;;;;;;;;;;;;;;;4991936;28;2143;-46
2022/11/28 04:53:45;;;;;;;;;;;;;;;;;;4991932;28;1761;-43
2022/11/28 04:56:15;;;;;;;;;;;;;;;;;;4991758;28;1998;-45
2022/11/28 04:58:45;;;;;;;;;;;;;;;;;;4991703;28;1979;-46
2022/11/28 05:01:15;;;;;;;;;;;;;;;;;;4991846;28;1924;-47
2022/11/28 05:03:43;;;;;;;;;;;;;;;;;;4991787;28;1842;-47
2022/11/28 05:06:10;;;;;;;;;;;;;;;;;;4991315;28;1903;-46
2022/11/28 05:08:37;;;;;;;;;;;;;;;;;;4991984;28;2279;-47
2022/11/28 05:11:04;;;;;;;;;;;;;;;;;;4991533;28;1938;-47
2022/11/28 05:13:33;;;;;;;;;;;;;;;;;;4991610;28;1889;-49
2022/11/28 05:16:02;;;;;;;;;;;;;;;;;;4991550;28;1987;-47
2022/11/28 05:18:29;;;;;;;;;;;;;;;;;;5000277;28;2185;-44
2022/11/28 05:20:57;;;;;;;;;;;;;;;;;;5011235;28;1914;-45
2022/11/28 05:23:24;;;;;;;;;;;;;;;;;;5011110;28;2063;-47
2022/11/28 05:25:51;;;;;;;;;;;;;;;;;;5011496;28;2099;-46
2022/11/28 05:28:18;;;;;;;;;;;;;;;;;;5011191;28;1817;-46
2022/11/28 05:30:55;;;;;;;;;;;;;;;;;;5011177;28;2201;-45
2022/11/28 05:33:22;;;;;;;;;;;;;;;;;;5011086;28;1842;-45
2022/11/28 05:35:51;;;;;;;;;;;;;;;;;;5011050;28;2029;-47
2022/11/28 05:38:18;;;;;;;;;;;;;;;;;;5010892;28;1915;-50
2022/11/28 05:40:45;;;;;;;;;;;;;;;;;;5010924;28;2017;-48
2022/11/28 05:43:13;;;;;;;;;;;;;;;;;;5011215;28;2024;-46
2022/11/28 05:45:43;;;;;;;;;;;;;;;;;;5010939;28;1817;-46
2022/11/28 05:48:10;;;;;;;;;;;;;;;;;;5012846;28;2009;-45
2022/11/28 05:50:38;;;;;;;;;;;;;;;;;;5014658;28;2246;-43
2022/11/28 05:53:06;;;;;;;;;;;;;;;;;;5014456;28;1948;-45
2022/11/28 05:55:33;;;;;;;;;;;;;;;;;;5014614;28;1856;-44
2022/11/28 05:58:00;;;;;;;;;;;;;;;;;;5014344;28;1727;-48
2022/11/28 06:00:27;;;;;;;;;;;;;;;;;;5014130;28;2085;-48
2022/11/28 06:02:54;;;;;;;;;;;;;;;;;;5014760;28;1897;-42
2022/11/28 06:05:26;;;;;;;;;;;;;;;;;;5014180;28;1974;-44
2022/11/28 06:08:08;;;;;;;;;;;;;;;;;;5014417;28;1975;-45
2022/11/28 06:10:35;;;;;;;;;;;;;;;;;;5013972;28;2177;-46
2022/11/28 06:13:05;;;;;;;;;;;;;;;;;;5004677;28;1845;-45
2022/11/28 06:15:33;;;;;;;;;;;;;;;;;;4994496;28;2027;-49
2022/11/28 06:18:04;;;;;;;;;;;;;;;;;;4999767;28;1915;-47
2022/11/28 06:20:33;;;;;;;;;;;;;;;;;;5014059;28;1981;-44
2022/11/28 06:23:00;;;;;;;;;;;;;;;;;;5013780;28;2114;-45
2022/11/28 06:25:27;;;;;;;;;;;;;;;;;;5013825;28;1786;-44
2022/11/28 06:27:54;;;;;;;;;;;;;;;;;;5013673;28;1401;-44
2022/11/28 06:30:24;;;;;;;;;;;;;;;;;;5013872;28;2030;-44
2022/11/28 06:32:51;;;;;;;;;;;;;;;;;;5013796;28;1882;-44
2022/11/28 06:35:18;;;;;;;;;;;;;;;;;;5013855;28;1891;-46
2022/11/28 06:37:45;;;;;;;;;;;;;;;;;;5013526;28;1816;-46
2022/11/28 06:40:13;;;;;;;;;;;;;;;;;;5013362;28;1954;-44
2022/11/28 06:42:41;;;;;;;;;;;;;;;;;;5013650;28;1957;-49
2022/11/28 06:45:08;;;;;;;;;;;;;;;;;;5013609;28;1993;-45
2022/11/28 06:47:36;;;;;;;;;;;;;;;;;;5013933;28;2007;-46
2022/11/28 06:50:03;;;;;;;;;;;;;;;;;;5013345;28;2190;-47
2022/11/28 06:52:30;;;;;;;;;;;;;;;;;;5013319;28;1936;-44
2022/11/28 06:54:57;;;;;;;;;;;;;;;;;;5013558;28;1908;-46
2022/11/28 06:57:24;;;;;;;;;;;;;;;;;;5013638;28;1928;-45
2022/11/28 06:59:51;;;;;;;;;;;;;;;;;;5012326;28;2043;-45
2022/11/28 07:02:18;;;;;;;;;;;;;;;;;;5013263;28;2018;-46
2022/11/28 07:04:45;;;;;;;;;;;;;;;;;;5013057;28;1908;-44
2022/11/28 07:07:13;;;;;;;;;;;;;;;;;;5012706;28;1840;-47
2022/11/28 07:09:42;;;;;;;;;;;;;;;;;;5012932;28;1927;-44
2022/11/28 07:12:10;;;;;;;;;;;;;;;;;;5013030;28;1856;-44
2022/11/28 07:14:40;;;;;;;;;;;;;;;;;;5013280;28;1980;-47
2022/11/28 07:17:07;;;;;;;;;;;;;;;;;;5013012;28;2072;-44
2022/11/28 07:19:34;;;;;;;;;;;;;;;;;;4994849;28;2248;-46
2022/11/28 07:22:01;;;;;;;;;;;;;;;;;;4993561;28;2028;-45
2022/11/28 07:24:29;;;;;;;;;;;;;;;;;;4993197;28;2084;-49
2022/11/28 07:26:56;;;;;;;;;;;;;;;;;;4992954;28;1988;-50
2022/11/28 07:29:23;;;;;;;;;;;;;;;;;;4993105;28;1924;-47
2022/11/28 07:31:50;;;;;;;;;;;;;;;;;;4992952;28;2176;-47
2022/11/28 07:34:18;;;;;;;;;;;;;;;;;;4992999;28;2130;-44
2022/11/28 07:36:45;;;;;;;;;;;;;;;;;;4992992;28;1881;-45
2022/11/28 07:39:14;;;;;;;;;;;;;;;;;;4992924;28;2091;-46
2022/11/28 07:41:42;;;;;;;;;;;;;;;;;;4992902;28;2015;-44
2022/11/28 07:44:09;;;;;;;;;;;;;;;;;;4992923;28;2018;-44
2022/11/28 07:46:37;;;;;;;;;;;;;;;;;;4992761;28;1846;-47
2022/11/28 07:49:04;;;;;;;;;;;;;;;;;;4992704;28;1936;-46
2022/11/28 07:51:32;;;;;;;;;;;;;;;;;;4992998;28;1936;-45
2022/11/28 07:53:59;;;;;;;;;;;;;;;;;;4992959;28;1808;-43
2022/11/28 07:56:27;;;;;;;;;;;;;;;;;;4992742;28;1700;-45
2022/11/28 07:59:05;;;;;;;;;;;;;;;;;;4992289;28;1972;-46
2022/11/28 08:01:34;;;;;;;;;;;;;;;;;;4992821;28;2094;-44
2022/11/28 08:04:03;;;;;;;;;;;;;;;;;;4992596;28;1888;-43
2022/11/28 08:06:31;;;;;;;;;;;;;;;;;;4992735;28;1685;-47
2022/11/28 08:08:59;;;;;;;;;;;;;;;;;;4992436;28;2023;-46
2022/11/28 08:11:28;;;;;;;;;;;;;;;;;;4992261;28;2006;-45
2022/11/28 08:13:56;;;;;;;;;;;;;;;;;;4992411;28;1799;-45
2022/11/28 08:16:24;;;;;;;;;;;;;;;;;;4992359;28;2053;-46
2022/11/28 08:18:53;;;;;;;;;;;;;;;;;;5003871;28;2180;-43
2022/11/28 08:21:24;;;;;;;;;;;;;;;;;;5011920;28;2177;-45
2022/11/28 08:23:53;;;;;;;;;;;;;;;;;;5011635;28;1893;-44
2022/11/28 08:26:21;;;;;;;;;;;;;;;;;;5011862;28;1875;-49
2022/11/28 08:28:54;;;;;;;;;;;;;;;;;;5011747;28;1898;-49
2022/11/28 08:31:27;;;;;;;;;;;;;;;;;;5011649;28;1800;-45
2022/11/28 08:33:55;;;;;;;;;;;;;;;;;;5011748;28;2141;-45
2022/11/28 08:36:22;;;;;;;;;;;;;;;;;;5011878;28;1969;-45
2022/11/28 08:38:49;;;;;;;;;;;;;;;;;;5011709;28;2123;-45
2022/11/28 08:41:35;;;;;;;;;;;;;;;;;;5011794;28;2136;-45
2022/11/28 08:44:02;;;;;;;;;;;;;;;;;;5010752;28;2000;-44
2022/11/28 08:46:29;;;;;;;;;;;;;;;;;;5010548;28;1417;-45
2022/11/28 08:48:57;;;;;;;;;;;;;;;;;;4991058;28;2049;-47
2022/11/28 08:51:24;;;;;;;;;;;;;;;;;;4990498;28;1856;-45
2022/11/28 08:53:51;;;;;;;;;;;;;;;;;;4990866;28;1965;-44
2022/11/28 08:56:24;;;;;;;;;;;;;;;;;;4991812;28;2075;-46
2022/11/28 08:58:51;;;;;;;;;;;;;;;;;;4990894;28;1856;-44
2022/11/28 09:01:20;;;;;;;;;;;;;;;;;;4991469;28;1952;-44
2022/11/28 09:03:47;;;;;;;;;;;;;;;;;;4991483;28;1863;-43
2022/11/28 09:06:15;;;;;;;;;;;;;;;;;;4991613;28;2079;-47
2022/11/28 09:08:43;;;;;;;;;;;;;;;;;;4991729;28;2017;-47
2022/11/28 09:11:11;;;;;;;;;;;;;;;;;;4991636;28;2001;-50
2022/11/28 09:13:38;;;;;;;;;;;;;;;;;;4991618;28;1898;-44
2022/11/28 09:16:06;;;;;;;;;;;;;;;;;;4991837;28;1956;-46
2022/11/28 09:18:33;;;;;;;;;;;;;;;;;;4991559;28;2015;-45
2022/11/28 09:21:01;;;;;;;;;;;;;;;;;;4991560;28;2055;-47
2022/11/28 09:23:28;;;;;;;;;;;;;;;;;;4993591;28;1632;-45
2022/11/28 09:25:56;;;;;;;;;;;;;;;;;;4994889;28;2086;-43
2022/11/28 09:28:23;;;;;;;;;;;;;;;;;;4994871;28;1835;-47
2022/11/28 09:30:58;;;;;;;;;;;;;;;;;;4995152;28;1979;-44
2022/11/28 09:33:25;;;;;;;;;;;;;;;;;;4995236;28;2171;-44
2022/11/28 09:35:54;;;;;;;;;;;;;;;;;;4995208;28;1895;-47
2022/11/28 09:38:21;;;;;;;;;;;;;;;;;;4995156;28;2004;-44
2022/11/28 09:40:49;;;;;;;;;;;;;;;;;;4994645;28;1964;-46
2022/11/28 09:43:28;;;;;;;;;;;;;;;;;;4994871;28;2133;-42
2022/11/28 09:45:56;;;;;;;;;;;;;;;;;;4993579;28;1997;-44
2022/11/28 09:48:29;;;;;;;;;;;;;;;;;;4993117;28;1962;-49
2022/11/28 09:51:02;;;;;;;;;;;;;;;;;;4992991;28;2030;-47
2022/11/28 09:53:38;;;;;;;;;;;;;;;;;;4992894;28;1960;-45
2022/11/28 09:56:09;;;;;;;;;;;;;;;;;;4993110;28;1854;-44
2022/11/28 09:58:39;;;;;;;;;;;;;;;;;;4992801;28;1982;-47
2022/11/28 10:01:21;;;;;;;;;;;;;;;;;;4993238;28;2134;-45
2022/11/28 10:03:58;;;;;;;;;;;;;;;;;;4994693;28;1982;-45
2022/11/28 10:06:25;;;;;;;;;;;;;;;;;;4994632;28;1908;-46
2022/11/28 10:08:58;;;;;;;;;;;;;;;;;;4994633;28;1930;-47
2022/11/28 10:11:44;;;;;;;;;;;;;;;;;;4994567;28;2149;-45
2022/11/28 10:14:17;;;;;;;;;;;;;;;;;;4993979;28;1989;-49
2022/11/28 10:16:47;;;;;;;;;;;;;;;;;;4994251;28;1897;-46
2022/11/28 10:19:16;;;;;;;;;;;;;;;;;;5009113;28;2118;-49
2022/11/28 10:22:06;;;;;;;;;;;;;;;;;;5013987;28;1952;-47
2022/11/28 10:24:36;;;;;;;;;;;;;;;;;;5013715;28;1992;-46
2022/11/28 10:27:04;;;;;;;;;;;;;;;;;;5013622;28;2061;-47
2022/11/28 10:29:43;;;;;;;;;;;;;;;;;;5013939;28;2009;-47
2022/11/28 10:32:16;;;;;;;;;;;;;;;;;;5013744;28;1974;-47
2022/11/28 10:34:57;;;;;;;;;;;;;;;;;;5012562;28;1967;-44
2022/11/28 10:37:26;;;;;;;;;;;;;;;;;;5013469;28;1890;-48
2022/11/28 10:39:57;;;;;;;;;;;;;;;;;;5013440;28;2014;-45
2022/11/28 10:42:32;;;;;;;;;;;;;;;;;;5013667;28;2036;-48
2022/11/28 10:44:59;;;;;;;;;;;;;;;;;;5013551;28;1924;-46
2022/11/28 10:48:04;;;;;;;;;;;;;;;;;;5013344;28;2013;-46
2022/11/28 10:51:09;;;;;;;;;;;;;;;;;;4991642;28;2042;-45
2022/11/28 10:53:54;;;;;;;;;;;;;;;;;;4991155;28;1930;-44
2022/11/28 10:56:31;;;;;;;;;;;;;;;;;;5010403;28;1982;-47
2022/11/28 10:59:14;;;;;;;;;;;;;;;;;;5013251;28;2073;-46
2022/11/28 11:01:41;;;;;;;;;;;;;;;;;;5007017;28;1973;-48
2022/11/28 11:04:25;;;;;;;;;;;;;;;;;;4993591;28;2003;-43
2022/11/28 11:06:58;;;;;;;;;;;;;;;;;;4993313;28;1938;-45
2022/11/28 11:09:37;;;;;;;;;;;;;;;;;;4993478;28;1963;-48
2022/11/28 11:12:05;;;;;;;;;;;;;;;;;;4993282;28;2143;-47
2022/11/28 11:14:38;;;;;;;;;;;;;;;;;;5002232;28;2062;-46
2022/11/28 11:17:06;;;;;;;;;;;;;;;;;;5012754;28;2011;-45
2022/11/28 11:19:37;;;;;;;;;;;;;;;;;;4995431;28;2029;-47
2022/11/28 11:22:18;;;;;;;;;;;;;;;;;;4993112;28;2048;-45
2022/11/28 11:25:05;;;;;;;;;;;;;;;;;;4993101;28;1384;-46
2022/11/28 11:27:34;;;;;;;;;;;;;;;;;;4992838;28;1977;-46
2022/11/28 11:30:24;;;;;;;;;;;;;;;;;;4992931;28;1799;-44
2022/11/28 11:32:53;;;;;;;;;;;;;;;;;;4992882;28;2070;-49
2022/11/28 11:35:24;;;;;;;;;;;;;;;;;;4992996;28;1845;-45
2022/11/28 11:37:52;;;;;;;;;;;;;;;;;;4992735;28;2079;-45
2022/11/28 11:40:19;;;;;;;;;;;;;;;;;;4992918;28;1942;-49
2022/11/28 11:42:50;;;;;;;;;;;;;;;;;;4993024;28;1944;-46
2022/11/28 11:45:28;;;;;;;;;;;;;;;;;;4992429;28;1933;-45
2022/11/28 11:47:56;;;;;;;;;;;;;;;;;;4992642;28;2168;-48
2022/11/28 11:50:24;;;;;;;;;;;;;;;;;;4992662;28;2090;-46
2022/11/28 11:53:05;;;;;;;;;;;;;;;;;;4992486;28;2198;-46
2022/11/28 11:55:37;;;;;;;;;;;;;;;;;;4992707;28;1938;-47
2022/11/28 11:58:04;;;;;;;;;;;;;;;;;;4992675;28;1840;-47
2022/11/28 12:00:36;;;;;;;;;;;;;;;;;;4992451;28;2035;-48
2022/11/28 12:03:22;;;;;;;;;;;;;;;;;;4992427;28;1334;-46
2022/11/28 12:05:52;;;;;;;;;;;;;;;;;;4992546;28;2059;-44
2022/11/28 12:08:54;;;;;;;;;;;;;;;;;;4992339;28;2085;-46
2022/11/28 12:11:27;;;;;;;;;;;;;;;;;;4992300;28;1850;-44
2022/11/28 12:13:55;;;;;;;;;;;;;;;;;;5007531;28;2147;-45
2022/11/28 12:16:41;;;;;;;;;;;;;;;;;;4992033;28;1977;-47
2022/11/28 12:19:09;;;;;;;;;;;;;;;;;;5006278;28;2004;-44
2022/11/28 12:21:48;;;;;;;;;;;;;;;;;;5011486;28;1979;-49
2022/11/28 12:24:16;;;;;;;;;;;;;;;;;;5011674;28;1989;-46
2022/11/28 12:26:52;;;;;;;;;;;;;;;;;;5011722;28;1962;-45
2022/11/28 12:29:33;;;;;;;;;;;;;;;;;;5011953;28;1940;-45
2022/11/28 12:32:06;;;;;;;;;;;;;;;;;;5011366;28;2083;-44
2022/11/28 12:34:36;;;;;;;;;;;;;;;;;;5011538;28;2049;-47
2022/11/28 12:37:23;;;;;;;;;;;;;;;;;;5011301;28;2105;-46
2022/11/28 12:39:57;;;;;;;;;;;;;;;;;;5011608;28;1979;-44
2022/11/28 12:42:47;;;;;;;;;;;;;;;;;;5011600;28;1909;-45
2022/11/28 12:45:14;;;;;;;;;;;;;;;;;;5011458;28;2086;-46
2022/11/28 12:47:56;;;;;;;;;;;;;;;;;;5011699;28;2060;-45
2022/11/28 12:50:41;;;;;;;;;;;;;;;;;;5011317;28;1871;-47
2022/11/28 12:53:17;;;;;;;;;;;;;;;;;;5011220;28;1770;-44
2022/11/28 12:55:54;;;;;;;;;;;;;;;;;;5010717;28;2111;-43
2022/11/28 12:58:29;;;;;;;;;;;;;;;;;;5008958;28;1825;-44
2022/11/28 13:01:06;;;;;;;;;;;;;;;;;;4995603;28;1971;-46
2022/11/28 13:03:33;;;;;;;;;;;;;;;;;;4995536;28;1914;-44
2022/11/28 13:06:06;;;;;;;;;;;;;;;;;;4995815;28;2115;-45
2022/11/28 13:08:38;;;;;;;;;;;;;;;;;;4995662;28;1912;-44
2022/11/28 13:11:30;;;;;;;;;;;;;;;;;;4995817;28;1836;-45
2022/11/28 13:14:00;;;;;;;;;;;;;;;;;;4995451;28;1973;-44
2022/11/28 13:16:43;;;;;;;;;;;;;;;;;;4995654;28;2105;-43
2022/11/28 13:19:22;;;;;;;;;;;;;;;;;;5009958;28;2100;-44
2022/11/28 13:21:52;;;;;;;;;;;;;;;;;;5015345;28;2002;-46
2022/11/28 13:24:20;;;;;;;;;;;;;;;;;;5014942;28;1833;-43
2022/11/28 13:26:57;;;;;;;;;;;;;;;;;;5015069;28;1903;-44
2022/11/28 13:29:34;;;;;;;;;;;;;;;;;;5014735;28;2023;-44
2022/11/28 13:32:04;;;;;;;;;;;;;;;;;;5008418;28;2023;-46
2022/11/28 13:34:31;;;;;;;;;;;;;;;;;;5014437;28;1996;-44
2022/11/28 13:37:10;;;;;;;;;;;;;;;;;;5014718;28;1956;-44
2022/11/28 13:40:03;;;;;;;;;;;;;;;;;;5013973;28;1939;-49
2022/11/28 13:42:46;;;;;;;;;;;;;;;;;;5014591;28;1978;-45
2022/11/28 13:45:34;;;;;;;;;;;;;;;;;;5014758;28;1992;-47
2022/11/28 13:48:20;;;;;;;;;;;;;;;;;;5014717;28;1851;-44
2022/11/28 13:51:18;;;;;;;;;;;;;;;;;;5014656;28;1810;-45
2022/11/28 13:54:09;;;;;;;;;;;;;;;;;;5014521;28;1947;-47
2022/11/28 13:56:37;;;;;;;;;;;;;;;;;;5014206;28;1822;-44
2022/11/28 13:59:11;;;;;;;;;;;;;;;;;;4996791;28;2020;-41
2022/11/28 14:01:46;;;;;;;;;;;;;;;;;;5012829;28;1997;-41
2022/11/28 14:04:15;;;;;;;;;;;;;;;;;;5014361;28;2050;-44
2022/11/28 14:06:48;;;;;;;;;;;;;;;;;;5010642;28;1850;-45
2022/11/28 14:09:15;;;;;;;;;;;;;;;;;;4994178;28;2166;-48
2022/11/28 14:11:42;;;;;;;;;;;;;;;;;;4994529;28;1855;-45
2022/11/28 14:14:09;;;;;;;;;;;;;;;;;;4994176;28;1954;-51
2022/11/28 14:16:39;;;;;;;;;;;;;;;;;;4994491;28;1969;-51
2022/11/28 14:19:15;;;;;;;;;;;;;;;;;;5024059;28;2066;-51
2022/11/28 14:21:51;;;;;;;;;;;;;;;;;;5014266;28;2069;-45
2022/11/28 14:24:26;;;;;;;;;;;;;;;;;;5013731;28;2200;-47
2022/11/28 14:26:57;;;;;;;;;;;;;;;;;;5014008;28;2012;-46
2022/11/28 14:29:35;;;;;;;;;;;;;;;;;;5029171;28;2096;-45
2022/11/28 14:32:03;;;;;;;;;;;;;;;;;;5013798;28;2095;-46
2022/11/28 14:34:50;;;;;;;;;;;;;;;;;;5028654;28;2431;-44
2022/11/28 14:37:20;;;;;;;;;;;;;;;;;;5013815;28;2109;-45
2022/11/28 14:39:48;;;;;;;;;;;;;;;;;;5013551;28;1820;-44
2022/11/28 14:42:16;;;;;;;;;;;;;;;;;;5028718;28;2138;-47
2022/11/28 14:45:23;;;;;;;;;;;;;;;;;;5013482;28;1772;-46
2022/11/28 14:48:15;;;;;;;;;;;;;;;;;;5028438;28;2048;-45
2022/11/28 14:50:46;;;;;;;;;;;;;;;;;;5013498;28;1927;-45
2022/11/28 14:53:55;;;;;;;;;;;;;;;;;;5028481;28;1933;-46
2022/11/28 14:56:26;;;;;;;;;;;;;;;;;;4991328;28;2020;-46
2022/11/28 14:59:00;;;;;;;;;;;;;;;;;;4991306;28;1910;-44
2022/11/28 15:01:27;;;;;;;;;;;;;;;;;;5003704;28;1917;-48
2022/11/28 15:04:04;;;;;;;;;;;;;;;;;;5028178;28;1981;-44
2022/11/28 15:06:34;;;;;;;;;;;;;;;;;;5018945;28;1951;-45
2022/11/28 15:09:01;;;;;;;;;;;;;;;;;;4993341;28;1928;-44
2022/11/28 15:11:34;;;;;;;;;;;;;;;;;;4993691;28;1830;-47
2022/11/28 15:14:16;;;;;;;;;;;;;;;;;;4993366;28;1997;-51
2022/11/28 15:16:45;;;;;;;;;;;;;;;;;;5008385;28;1855;-45
2022/11/28 15:19:23;;;;;;;;;;;;;;;;;;5008739;28;2013;-47
2022/11/28 15:21:51;;;;;;;;;;;;;;;;;;5027489;28;1963;-46
2022/11/28 15:24:22;;;;;;;;;;;;;;;;;;5012659;28;2070;-45
2022/11/28 15:26:53;;;;;;;;;;;;;;;;;;5027705;28;1899;-47
2022/11/28 15:29:27;;;;;;;;;;;;;;;;;;5012598;28;2190;-48
2022/11/28 15:31:55;;;;;;;;;;;;;;;;;;5012595;28;2038;-47
2022/11/28 15:34:23;;;;;;;;;;;;;;;;;;5012554;28;2152;-49
2022/11/28 15:36:52;;;;;;;;;;;;;;;;;;5012836;28;1969;-47
2022/11/28 15:39:38;;;;;;;;;;;;;;;;;;5012542;28;2167;-50
2022/11/28 15:42:14;;;;;;;;;;;;;;;;;;5012402;28;1916;-45
2022/11/28 15:44:42;;;;;;;;;;;;;;;;;;5027661;28;1893;-43
2022/11/28 15:47:18;;;;;;;;;;;;;;;;;;5027578;28;2047;-45
2022/11/28 15:49:58;;;;;;;;;;;;;;;;;;5026825;28;2098;-47
2022/11/28 15:52:26;;;;;;;;;;;;;;;;;;5012048;28;1983;-47
2022/11/28 15:54:53;;;;;;;;;;;;;;;;;;5012344;28;2051;-47
2022/11/28 15:57:25;;;;;;;;;;;;;;;;;;5027061;28;1916;-44
2022/11/28 15:59:53;;;;;;;;;;;;;;;;;;5012173;28;2014;-46
2022/11/28 16:02:25;;;;;;;;;;;;;;;;;;5027130;28;2071;-47
2022/11/28 16:04:56;;;;;;;;;;;;;;;;;;5011890;28;2045;-44
2022/11/28 16:07:24;;;;;;;;;;;;;;;;;;5011825;28;2011;-45
2022/11/28 16:09:59;;;;;;;;;;;;;;;;;;5012085;28;1937;-44
2022/11/28 16:12:27;;;;;;;;;;;;;;;;;;5011793;28;1876;-46
2022/11/28 16:15:00;;;;;;;;;;;;;;;;;;5011824;28;2055;-43
2022/11/28 16:17:30;;;;;;;;;;;;;;;;;;5011336;28;1909;-46
2022/11/28 16:19:58;;;;;;;;;;;;;;;;;;4992140;28;1958;-44
2022/11/28 16:22:33;;;;;;;;;;;;;;;;;;5007140;28;1971;-50
2022/11/28 16:25:11;;;;;;;;;;;;;;;;;;4992186;28;1877;-44
2022/11/28 16:27:41;;;;;;;;;;;;;;;;;;4992186;28;2278;-45
2022/11/28 16:30:27;;;;;;;;;;;;;;;;;;4992222;28;1934;-43
2022/11/28 16:32:55;;;;;;;;;;;;;;;;;;4991891;28;1933;-47
2022/11/28 16:35:25;;;;;;;;;;;;;;;;;;4992511;28;2010;-47
2022/11/28 16:38:02;;;;;;;;;;;;;;;;;;4991802;28;1894;-47
2022/11/28 16:40:29;;;;;;;;;;;;;;;;;;4992016;28;2152;-46
2022/11/28 16:42:57;;;;;;;;;;;;;;;;;;4991879;28;1990;-44
2022/11/28 16:45:29;;;;;;;;;;;;;;;;;;4991903;28;2156;-45
2022/11/28 16:48:14;;;;;;;;;;;;;;;;;;4991575;28;2094;-44
2022/11/28 16:51:01;;;;;;;;;;;;;;;;;;4991478;28;1847;-45
2022/11/28 16:53:37;;;;;;;;;;;;;;;;;;5001637;28;1992;-44
2022/11/28 16:56:21;;;;;;;;;;;;;;;;;;5011502;28;1980;-48
2022/11/28 16:58:50;;;;;;;;;;;;;;;;;;5011239;28;1994;-46
2022/11/28 17:01:17;;;;;;;;;;;;;;;;;;5011276;28;2160;-45
2022/11/28 17:03:46;;;;;;;;;;;;;;;;;;5011367;28;1832;-45
2022/11/28 17:06:21;;;;;;;;;;;;;;;;;;5011056;28;1910;-45
2022/11/28 17:08:49;;;;;;;;;;;;;;;;;;5011250;28;1933;-46
2022/11/28 17:11:17;;;;;;;;;;;;;;;;;;5010815;28;2015;-48
2022/11/28 17:13:44;;;;;;;;;;;;;;;;;;5015275;28;1913;-44
2022/11/28 17:16:17;;;;;;;;;;;;;;;;;;4991633;28;1986;-44
2022/11/28 17:18:44;;;;;;;;;;;;;;;;;;4991819;28;2141;-45
2022/11/28 17:21:12;;;;;;;;;;;;;;;;;;4991431;28;1969;-46
2022/11/28 17:23:40;;;;;;;;;;;;;;;;;;4991351;28;2004;-45
2022/11/28 17:26:08;;;;;;;;;;;;;;;;;;4991889;28;1849;-47
2022/11/28 17:28:35;;;;;;;;;;;;;;;;;;4991686;28;1824;-45
2022/11/28 17:31:02;;;;;;;;;;;;;;;;;;4991423;28;2012;-46
2022/11/28 17:33:29;;;;;;;;;;;;;;;;;;4991311;28;1894;-48
2022/11/28 17:35:57;;;;;;;;;;;;;;;;;;4991248;28;1983;-46
2022/11/28 17:38:25;;;;;;;;;;;;;;;;;;4991475;28;2074;-45